Time;durP1;ratioP1;P1;durP2;ratioP2;P2;SDS_P1;SDS_P2;PMS_P1;PMS_P2;Temp;Humidity;BMP_temperature;BMP_pressure;BME280_temperature;BME280_humidity;BME280_pressure;Samples;Min_cycle;Max_cycle;Signal;HPM_P1;HPM_P2
2022/10/12 00:01:04;;;;;;;;;;;;;;;11.19;100.00;96303.31;10566513;28;3344;-73
2022/10/12 00:06:08;;;;;;;;;;;;;;;11.27;100.00;96302.84;10566625;28;2209;-74
2022/10/12 00:11:11;;;;;;;;;;;;;;;11.27;100.00;96303.66;10572976;28;2883;-73
2022/10/12 00:16:15;;;;;;;;;;;;;;;11.25;100.00;96303.06;10564681;28;3299;-74
2022/10/12 00:21:19;;;;;;;;;;;;;;;11.21;100.00;96293.94;10556962;28;3304;-73
2022/10/12 00:26:22;;;;;;;;;;;;;;;11.21;100.00;96295.81;10563715;28;3442;-73
2022/10/12 00:31:25;;;;;;;;;;;;;;;11.23;100.00;96293.66;10553765;28;2219;-75
2022/10/12 00:36:31;;;;;;;;;;;;;;;11.21;100.00;96285.88;10549671;28;2166;-75
2022/10/12 00:41:34;;;;;;;;;;;;;;;11.22;100.00;96292.84;10554654;28;3338;-74
2022/10/12 00:46:38;;;;;;;;;;;;;;;11.26;100.00;96288.56;10548224;28;2216;-73
2022/10/12 00:51:41;;;;;;;;;;;;;;;11.42;100.00;96283.22;10537142;28;3344;-72
2022/10/12 00:56:53;;;;;;;;;;;;;;;11.31;100.00;96287.75;10560223;28;3338;-74
2022/10/12 01:01:56;;;;;;;;;;;;;;;11.42;100.00;96280.53;10562156;28;3335;-74
2022/10/12 01:06:59;;;;;;;;;;;;;;;11.54;100.00;96283.78;10551735;28;3299;-72
2022/10/12 01:12:03;;;;;;;;;;;;;;;11.65;100.00;96288.09;10558526;28;2176;-73
2022/10/12 01:17:06;;;;;;;;;;;;;;;11.58;100.00;96280.28;10554179;28;2876;-75
2022/10/12 01:22:10;;;;;;;;;;;;;;;11.72;100.00;96285.97;10560737;28;3271;-75
2022/10/12 01:27:15;;;;;;;;;;;;;;;11.65;100.00;96293.50;10556320;28;2899;-74
2022/10/12 01:32:18;;;;;;;;;;;;;;;11.74;100.00;96286.50;10566468;28;2178;-75
2022/10/12 01:37:21;;;;;;;;;;;;;;;11.48;100.00;96285.66;10557337;28;3621;-74
2022/10/12 01:42:25;;;;;;;;;;;;;;;11.57;100.00;96283.22;10575934;28;2863;-75
2022/10/12 01:47:28;;;;;;;;;;;;;;;11.59;100.00;96286.47;10550140;28;2178;-74
2022/10/12 01:52:32;;;;;;;;;;;;;;;11.56;100.00;96289.69;10557211;28;2951;-74
2022/10/12 01:57:35;;;;;;;;;;;;;;;11.47;100.00;96294.00;10552623;28;3393;-73
2022/10/12 02:02:39;;;;;;;;;;;;;;;11.54;100.00;96286.47;10548491;28;2151;-74
2022/10/12 02:07:43;;;;;;;;;;;;;;;11.58;100.00;96284.88;10546433;28;2122;-74
2022/10/12 02:12:46;;;;;;;;;;;;;;;11.67;100.00;96287.84;10542751;28;3283;-74
2022/10/12 02:17:50;;;;;;;;;;;;;;;11.68;100.00;96279.47;10553196;28;2157;-74
2022/10/12 02:22:59;;;;;;;;;;;;;;;11.78;100.00;96282.19;10546520;28;2862;-75
2022/10/12 02:28:02;;;;;;;;;;;;;;;11.69;100.00;96282.97;10554598;28;3415;-74
2022/10/12 02:33:16;;;;;;;;;;;;;;;11.77;100.00;96288.66;10551869;28;3325;-74
2022/10/12 02:38:19;;;;;;;;;;;;;;;11.66;100.00;96278.16;10553868;28;3307;-74
2022/10/12 02:43:22;;;;;;;;;;;;;;;11.38;100.00;96270.28;10548130;28;3308;-75
2022/10/12 02:48:26;;;;;;;;;;;;;;;11.54;100.00;96273.00;10551075;28;3322;-76
2022/10/12 02:53:29;;;;;;;;;;;;;;;11.57;100.00;96272.47;10557646;28;3288;-75
2022/10/12 02:58:32;;;;;;;;;;;;;;;11.46;100.00;96271.66;10552370;28;2855;-76
2022/10/12 03:03:35;;;;;;;;;;;;;;;11.19;100.00;96261.09;10548631;28;3327;-74
2022/10/12 03:08:39;;;;;;;;;;;;;;;11.44;100.00;96256.81;10552751;28;3287;-72
2022/10/12 03:13:43;;;;;;;;;;;;;;;11.53;100.00;96260.63;10546270;28;3236;-72
2022/10/12 03:18:46;;;;;;;;;;;;;;;11.34;100.00;96257.63;10549635;28;2960;-72
2022/10/12 03:23:50;;;;;;;;;;;;;;;11.40;100.00;96261.16;10557283;28;2241;-74
2022/10/12 03:28:53;;;;;;;;;;;;;;;11.40;100.00;96253.06;10556552;28;3309;-73
2022/10/12 03:33:56;;;;;;;;;;;;;;;11.40;100.00;96263.84;10564656;28;2875;-72
2022/10/12 03:39:03;;;;;;;;;;;;;;;11.33;100.00;96256.84;10559614;28;2207;-72
2022/10/12 03:44:06;;;;;;;;;;;;;;;11.32;100.00;96260.59;10558245;28;3286;-74
2022/10/12 03:49:10;;;;;;;;;;;;;;;11.43;100.00;96265.97;10551080;28;2934;-74
2022/10/12 03:54:13;;;;;;;;;;;;;;;11.33;100.00;96277.56;10560273;28;2820;-75
2022/10/12 03:59:16;;;;;;;;;;;;;;;11.20;100.00;96268.09;10551525;28;3381;-75
2022/10/12 04:04:20;;;;;;;;;;;;;;;11.10;100.00;96276.13;10557935;28;3302;-74
2022/10/12 04:09:23;;;;;;;;;;;;;;;11.25;100.00;96268.09;10556739;28;3311;-72
2022/10/12 04:14:26;;;;;;;;;;;;;;;11.26;100.00;96267.03;10551007;28;2207;-73
2022/10/12 04:19:29;;;;;;;;;;;;;;;11.43;100.00;96271.38;10561738;28;2200;-76
2022/10/12 04:24:33;;;;;;;;;;;;;;;11.51;100.00;96263.56;10551140;28;2911;-77
2022/10/12 04:29:36;;;;;;;;;;;;;;;11.63;100.00;96274.09;10564457;28;3671;-77
2022/10/12 04:34:39;;;;;;;;;;;;;;;11.57;100.00;96277.84;10562325;28;2967;-74
2022/10/12 04:39:43;;;;;;;;;;;;;;;11.62;100.00;96275.16;10556076;28;3223;-74
2022/10/12 04:44:46;;;;;;;;;;;;;;;11.23;100.00;96282.91;10562010;28;3271;-75
2022/10/12 04:49:49;;;;;;;;;;;;;;;11.46;100.00;96282.44;10569320;28;2828;-75
2022/10/12 04:54:53;;;;;;;;;;;;;;;11.55;100.00;96280.00;10557987;27;2868;-75
2022/10/12 04:59:57;;;;;;;;;;;;;;;11.39;100.00;96276.50;10541010;28;3258;-74
2022/10/12 05:05:00;;;;;;;;;;;;;;;11.52;100.00;96275.16;10548673;28;3307;-74
2022/10/12 05:10:03;;;;;;;;;;;;;;;11.55;100.00;96280.00;10549550;28;3316;-75
2022/10/12 05:15:06;;;;;;;;;;;;;;;11.57;100.00;96289.41;10551073;28;2844;-75
2022/10/12 05:20:10;;;;;;;;;;;;;;;11.64;100.00;96281.09;10557215;28;3437;-72
2022/10/12 05:25:13;;;;;;;;;;;;;;;11.49;100.00;96276.50;10572583;27;3297;-73
2022/10/12 05:30:16;;;;;;;;;;;;;;;11.48;100.00;96285.66;10550929;28;2196;-71
2022/10/12 05:35:20;;;;;;;;;;;;;;;11.52;100.00;96288.63;10555960;28;3329;-73
2022/10/12 05:40:23;;;;;;;;;;;;;;;11.67;100.00;96285.16;10563216;28;2855;-72
2022/10/12 05:45:26;;;;;;;;;;;;;;;11.64;100.00;96294.53;10552976;28;2906;-72
2022/10/12 05:50:41;;;;;;;;;;;;;;;11.59;100.00;96297.25;10544376;28;3680;-77
2022/10/12 05:55:44;;;;;;;;;;;;;;;11.56;100.00;96292.38;10543656;28;2219;-74
2022/10/12 06:00:47;;;;;;;;;;;;;;;11.62;100.00;96313.66;10566414;27;1933;-74
2022/10/12 06:05:51;;;;;;;;;;;;;;;11.45;100.00;96313.13;10548093;28;2008;-73
2022/10/12 06:10:54;;;;;;;;;;;;;;;11.33;100.00;96307.16;10542562;28;2085;-73
2022/10/12 06:15:57;;;;;;;;;;;;;;;11.43;100.00;96309.06;10554302;28;2137;-74
2022/10/12 06:21:00;;;;;;;;;;;;;;;11.63;100.00;96298.31;10543407;28;2104;-73
2022/10/12 06:26:24;;;;;;;;;;;;;;;11.77;100.00;96315.59;10541175;28;2332;-74
2022/10/12 06:31:27;;;;;;;;;;;;;;;11.97;100.00;96324.81;10554705;28;2222;-75
2022/10/12 06:36:30;;;;;;;;;;;;;;;12.01;100.00;96323.16;10557771;28;2200;-74
2022/10/12 06:41:33;;;;;;;;;;;;;;;12.24;100.00;96329.91;10548281;28;2048;-74
2022/10/12 06:46:39;;;;;;;;;;;;;;;12.48;100.00;96319.38;10544794;28;2153;-73
2022/10/12 06:51:43;;;;;;;;;;;;;;;12.34;100.00;96316.41;10549460;28;2303;-75
2022/10/12 06:56:46;;;;;;;;;;;;;;;12.51;100.00;96318.84;10548761;28;2126;-75
2022/10/12 07:01:50;;;;;;;;;;;;;;;12.69;100.00;96313.66;10553223;28;2055;-75
2022/10/12 07:06:53;;;;;;;;;;;;;;;12.83;100.00;96310.41;10545676;28;2181;-75
2022/10/12 07:11:57;;;;;;;;;;;;;;;13.02;100.00;96313.31;10543236;28;2256;-75
2022/10/12 07:17:00;;;;;;;;;;;;;;;13.27;100.00;96313.22;10556469;28;2015;-74
2022/10/12 07:22:03;;;;;;;;;;;;;;;13.66;100.00;96309.78;10551922;28;2166;-74
2022/10/12 07:27:08;;;;;;;;;;;;;;;13.91;100.00;96315.00;10554471;28;2045;-74
2022/10/12 07:32:11;;;;;;;;;;;;;;;14.15;100.00;96315.09;10545855;28;2000;-74
2022/10/12 07:37:15;;;;;;;;;;;;;;;13.88;100.00;96320.19;10548393;28;2068;-74
2022/10/12 07:42:18;;;;;;;;;;;;;;;13.72;100.00;96322.97;10549623;28;2016;-75
2022/10/12 07:47:21;;;;;;;;;;;;;;;13.61;100.00;96326.00;10546698;28;1961;-74
2022/10/12 07:52:26;;;;;;;;;;;;;;;13.32;100.00;96334.00;10553964;28;2183;-76
2022/10/12 07:57:29;;;;;;;;;;;;;;;13.26;100.00;96338.63;10556648;28;2118;-73
2022/10/12 08:02:36;;;;;;;;;;;;;;;13.13;100.00;96341.88;10547576;28;2090;-75
2022/10/12 08:07:39;;;;;;;;;;;;;;;12.98;100.00;96350.84;10551043;28;2057;-74
2022/10/12 08:12:43;;;;;;;;;;;;;;;12.93;100.00;96348.97;10555030;28;2082;-74
2022/10/12 08:17:53;;;;;;;;;;;;;;;13.06;100.00;96342.19;10552684;28;1962;-75
2022/10/12 08:22:57;;;;;;;;;;;;;;;12.88;100.00;96350.84;10544324;28;1961;-73
2022/10/12 08:28:02;;;;;;;;;;;;;;;12.92;100.00;96347.34;10562216;28;2038;-73
2022/10/12 08:33:05;;;;;;;;;;;;;;;13.17;100.00;96346.47;10553347;28;2025;-74
2022/10/12 08:38:16;;;;;;;;;;;;;;;13.04;100.00;96348.91;10561664;28;1948;-76
2022/10/12 08:43:19;;;;;;;;;;;;;;;13.17;100.00;96353.75;10563754;28;2124;-75
2022/10/12 08:48:32;;;;;;;;;;;;;;;13.32;100.00;96351.00;10553885;28;2090;-75
2022/10/12 08:53:35;;;;;;;;;;;;;;;13.35;100.00;96350.44;10550185;28;2097;-74
2022/10/12 08:58:39;;;;;;;;;;;;;;;13.66;100.00;96359.19;10559722;28;1975;-73
2022/10/12 09:03:42;;;;;;;;;;;;;;;13.90;100.00;96350.44;10554683;28;2053;-72
2022/10/12 09:08:46;;;;;;;;;;;;;;;13.92;100.00;96354.44;10554439;28;2034;-73
2022/10/12 09:13:49;;;;;;;;;;;;;;;14.33;100.00;96354.97;10557190;28;1999;-74
2022/10/12 09:18:52;;;;;;;;;;;;;;;14.37;100.00;96347.09;10546916;28;2015;-75
2022/10/12 09:23:55;;;;;;;;;;;;;;;14.48;100.00;96348.66;10548163;28;1997;-74
2022/10/12 09:28:59;;;;;;;;;;;;;;;14.85;100.00;96348.03;10554380;28;2102;-75
2022/10/12 09:34:02;;;;;;;;;;;;;;;14.98;100.00;96348.44;10552878;28;1961;-74
2022/10/12 09:39:05;;;;;;;;;;;;;;;15.19;100.00;96346.31;10549237;28;1955;-74
2022/10/12 09:44:12;;;;;;;;;;;;;;;15.31;100.00;96344.00;10554266;28;2108;-74
2022/10/12 09:49:15;;;;;;;;;;;;;;;15.24;100.00;96340.84;10556775;28;1975;-73
2022/10/12 09:54:19;;;;;;;;;;;;;;;15.51;100.00;96341.03;10552287;28;2127;-73
2022/10/12 09:59:22;;;;;;;;;;;;;;;16.07;100.00;96332.13;10556237;28;2077;-74
2022/10/12 10:04:25;;;;;;;;;;;;;;;15.76;100.00;96330.97;10557979;28;2056;-74
2022/10/12 10:09:28;;;;;;;;;;;;;;;15.85;100.00;96332.75;10544659;28;1929;-74
2022/10/12 10:14:32;;;;;;;;;;;;;;;15.83;100.00;96328.69;10559277;28;1959;-77
2022/10/12 10:19:35;;;;;;;;;;;;;;;15.73;100.00;96331.56;10546023;28;2069;-76
2022/10/12 10:24:38;;;;;;;;;;;;;;;15.75;100.00;96327.47;10547958;28;1921;-75
2022/10/12 10:29:42;;;;;;;;;;;;;;;15.72;100.00;96325.34;10542182;28;2029;-75
2022/10/12 10:34:45;;;;;;;;;;;;;;;15.89;100.00;96327.53;10549926;28;1960;-74
2022/10/12 10:39:49;;;;;;;;;;;;;;;16.07;100.00;96321.28;10551700;28;2175;-73
2022/10/12 10:44:52;;;;;;;;;;;;;;;16.25;100.00;96316.13;10558910;28;1944;-74
2022/10/12 10:49:56;;;;;;;;;;;;;;;16.05;100.00;96320.78;10546291;28;2145;-74
2022/10/12 10:54:59;;;;;;;;;;;;;;;15.52;100.00;96320.16;10564239;28;1899;-74
2022/10/12 11:00:02;;;;;;;;;;;;;;;15.21;100.00;96322.47;10559062;28;1933;-73
2022/10/12 11:05:26;;;;;;;;;;;;;;;15.45;100.00;96319.72;10544834;28;1953;-74
2022/10/12 11:10:29;;;;;;;;;;;;;;;15.41;100.00;96320.31;10550031;28;2111;-73
2022/10/12 11:15:33;;;;;;;;;;;;;;;15.58;100.00;96324.41;10520145;28;2155;-73
2022/10/12 11:20:36;;;;;;;;;;;;;;;15.84;100.00;96311.31;10542920;28;1967;-73
2022/10/12 11:25:40;;;;;;;;;;;;;;;15.12;100.00;96314.16;10544133;28;2033;-74
2022/10/12 11:30:50;;;;;;;;;;;;;;;15.33;100.00;96306.59;10558141;28;2033;-74
2022/10/12 11:35:57;;;;;;;;;;;;;;;15.68;100.00;96308.84;10549622;28;2011;-73
2022/10/12 11:41:03;;;;;;;;;;;;;;;15.57;100.00;96291.09;10556149;28;1914;-73
2022/10/12 11:46:26;;;;;;;;;;;;;;;15.87;100.00;96284.44;10544341;28;1957;-73
2022/10/12 11:51:30;;;;;;;;;;;;;;;15.87;100.00;96283.66;10565407;28;1979;-75
2022/10/12 11:56:34;;;;;;;;;;;;;;;15.42;100.00;96280.47;10563267;28;1934;-75
2022/10/12 12:01:38;;;;;;;;;;;;;;;15.74;100.00;96279.78;10568452;28;2011;-77
2022/10/12 12:06:42;;;;;;;;;;;;;;;15.81;100.00;96280.22;10561935;28;1952;-77
2022/10/12 12:11:45;;;;;;;;;;;;;;;15.70;100.00;96276.03;10559964;28;2060;-74
2022/10/12 12:16:48;;;;;;;;;;;;;;;16.11;100.00;96268.09;10566971;28;1862;-74
2022/10/12 12:21:51;;;;;;;;;;;;;;;16.19;100.00;96261.97;10561705;28;1952;-74
2022/10/12 12:26:55;;;;;;;;;;;;;;;15.70;100.00;96264.38;10565054;28;1983;-74
2022/10/12 12:31:59;;;;;;;;;;;;;;;15.89;100.00;96268.69;10552180;28;1964;-73
2022/10/12 12:37:02;;;;;;;;;;;;;;;16.07;100.00;96267.06;10561917;28;2096;-74
2022/10/12 12:42:05;;;;;;;;;;;;;;;15.99;100.00;96269.66;10565760;28;1970;-74
2022/10/12 12:47:09;;;;;;;;;;;;;;;15.92;100.00;96264.59;10538271;28;3213;-74
2022/10/12 12:52:33;;;;;;;;;;;;;;;15.85;100.00;96264.97;10566162;28;1913;-73
2022/10/12 12:57:37;;;;;;;;;;;;;;;16.09;100.00;96261.31;10567605;28;1944;-73
2022/10/12 13:02:41;;;;;;;;;;;;;;;15.86;100.00;96261.16;10563959;28;1908;-73
2022/10/12 13:07:44;;;;;;;;;;;;;;;15.86;100.00;96265.78;10562570;28;1956;-74
2022/10/12 13:12:48;;;;;;;;;;;;;;;15.57;100.00;96260.47;10558451;28;1977;-75
2022/10/12 13:17:52;;;;;;;;;;;;;;;15.31;100.00;96260.03;10563127;28;1936;-75
2022/10/12 13:22:56;;;;;;;;;;;;;;;15.31;100.00;96258.13;10566053;28;1897;-75
2022/10/12 13:28:00;;;;;;;;;;;;;;;15.22;100.00;96261.78;10569044;27;1967;-75
2022/10/12 13:33:04;;;;;;;;;;;;;;;15.62;100.00;96258.53;10564098;28;1913;-74
2022/10/12 13:38:07;;;;;;;;;;;;;;;15.18;100.00;96263.47;10555176;28;2026;-74
2022/10/12 13:43:14;;;;;;;;;;;;;;;15.09;100.00;96256.00;10556676;28;1953;-75
2022/10/12 13:48:18;;;;;;;;;;;;;;;15.04;100.00;96253.34;10565488;28;2029;-75
2022/10/12 13:53:41;;;;;;;;;;;;;;;15.50;100.00;96250.00;10560246;28;2000;-74
2022/10/12 13:58:50;;;;;;;;;;;;;;;15.24;100.00;96254.16;10544871;28;2130;-75
2022/10/12 14:03:53;;;;;;;;;;;;;;;14.98;100.00;96251.78;10564764;28;2340;-73
2022/10/12 14:08:57;;;;;;;;;;;;;;;15.58;100.00;96233.09;10564339;28;1846;-76
2022/10/12 14:14:01;;;;;;;;;;;;;;;15.62;100.00;96233.34;10556991;28;1976;-75
2022/10/12 14:19:05;;;;;;;;;;;;;;;15.07;100.00;96233.78;10565916;28;1924;-73
2022/10/12 14:24:08;;;;;;;;;;;;;;;15.07;100.00;96236.50;10549891;28;1961;-73
2022/10/12 14:29:11;;;;;;;;;;;;;;;14.86;100.00;96237.88;10557703;28;1849;-74
2022/10/12 14:34:14;;;;;;;;;;;;;;;14.66;100.00;96235.41;10553884;28;1984;-74
2022/10/12 14:39:18;;;;;;;;;;;;;;;14.85;100.00;96233.56;10550729;28;1893;-75
2022/10/12 14:44:21;;;;;;;;;;;;;;;14.81;100.00;96229.78;10560985;28;2139;-75
2022/10/12 14:49:25;;;;;;;;;;;;;;;14.75;100.00;96225.53;10564018;28;1850;-75
2022/10/12 14:54:28;;;;;;;;;;;;;;;14.79;100.00;96229.28;10556141;28;2038;-74
2022/10/12 14:59:31;;;;;;;;;;;;;;;14.53;100.00;96221.47;10552277;28;1964;-76
2022/10/12 15:04:34;;;;;;;;;;;;;;;14.76;100.00;96229.84;10554975;28;2033;-75
2022/10/12 15:09:38;;;;;;;;;;;;;;;14.52;100.00;96233.38;10539741;28;2136;-74
2022/10/12 15:14:41;;;;;;;;;;;;;;;14.50;100.00;96232.03;10552191;28;2018;-74
2022/10/12 15:19:44;;;;;;;;;;;;;;;14.22;100.00;96233.66;10549996;27;2096;-73
2022/10/12 15:24:52;;;;;;;;;;;;;;;14.04;100.00;96235.97;10550338;28;1921;-73
2022/10/12 15:29:57;;;;;;;;;;;;;;;13.90;100.00;96235.03;10568412;28;2230;-76
2022/10/12 15:35:01;;;;;;;;;;;;;;;13.91;100.00;96235.81;10562766;28;2024;-75
2022/10/12 15:40:04;;;;;;;;;;;;;;;13.77;100.00;96238.38;10565806;28;2080;-75
2022/10/12 15:45:07;;;;;;;;;;;;;;;13.85;100.00;96228.84;10560770;28;1984;-75
2022/10/12 15:50:15;;;;;;;;;;;;;;;13.71;100.00;96228.69;10572521;28;1978;-77
2022/10/12 15:55:18;;;;;;;;;;;;;;;13.55;100.00;96240.69;10572367;28;1961;-74
2022/10/12 16:00:22;;;;;;;;;;;;;;;13.56;100.00;96231.53;10564879;28;1917;-73
2022/10/12 16:05:25;;;;;;;;;;;;;;;13.48;100.00;96225.59;10570363;28;1927;-74
2022/10/12 16:10:28;;;;;;;;;;;;;;;13.46;100.00;96227.78;10574569;28;2264;-75
2022/10/12 16:15:32;;;;;;;;;;;;;;;13.40;100.00;96237.00;10563473;28;2067;-75
2022/10/12 16:20:36;;;;;;;;;;;;;;;13.41;100.00;96233.22;10568847;27;2000;-73
2022/10/12 16:25:40;;;;;;;;;;;;;;;13.24;100.00;96222.81;10575326;27;2058;-74
2022/10/12 16:30:44;;;;;;;;;;;;;;;13.23;100.00;96231.16;10556256;28;1997;-74
2022/10/12 16:35:47;;;;;;;;;;;;;;;13.15;100.00;96237.13;10562585;27;2029;-74
2022/10/12 16:40:51;;;;;;;;;;;;;;;13.27;100.00;96234.94;10560128;28;2106;-73
2022/10/12 16:45:54;;;;;;;;;;;;;;;13.29;100.00;96237.34;10565347;28;2065;-73
2022/10/12 16:50:57;;;;;;;;;;;;;;;13.29;100.00;96248.94;10557568;28;2246;-74
2022/10/12 16:56:01;;;;;;;;;;;;;;;13.23;100.00;96242.81;10563271;28;2080;-75
2022/10/12 17:01:04;;;;;;;;;;;;;;;13.14;100.00;96249.00;10560322;28;2109;-73
2022/10/12 17:06:07;;;;;;;;;;;;;;;13.01;100.00;96247.72;10549635;28;2050;-75
2022/10/12 17:11:12;;;;;;;;;;;;;;;13.06;100.00;96239.63;10539718;28;2011;-74
2022/10/12 17:21:40;;;;;;;;;;;;;;;12.93;100.00;96253.72;10549106;27;2070;-74
2022/10/12 17:26:44;;;;;;;;;;;;;;;12.98;100.00;96249.09;10566450;27;2340;-74
2022/10/12 17:31:47;;;;;;;;;;;;;;;12.98;100.00;96259.09;10564492;27;2029;-75
2022/10/12 17:36:50;;;;;;;;;;;;;;;12.90;100.00;96255.06;10561637;28;1955;-74
2022/10/12 17:41:54;;;;;;;;;;;;;;;12.96;100.00;96261.25;10549869;28;2128;-74
2022/10/12 17:46:57;;;;;;;;;;;;;;;13.00;100.00;96259.63;10558216;28;1925;-74
2022/10/12 17:52:01;;;;;;;;;;;;;;;13.05;100.00;96258.78;10556454;28;2108;-76
2022/10/12 17:57:04;;;;;;;;;;;;;;;12.93;100.00;96256.41;10551035;28;2034;-74
2022/10/12 18:02:07;;;;;;;;;;;;;;;12.98;100.00;96259.91;10545534;28;2089;-76
2022/10/12 18:07:11;;;;;;;;;;;13.80;99.90;;;12.97;100.00;96258.25;10560528;28;1991;-75
2022/10/12 18:12:14;;;;;;;;;;;13.80;99.90;;;12.93;100.00;96259.09;10545452;28;2180;-77
2022/10/12 18:17:17;;;;;;;;;;;13.80;99.90;;;12.85;100.00;96265.88;10548373;28;2023;-75
2022/10/12 18:22:20;;;;;;;;;;;13.70;99.90;;;12.83;100.00;96267.22;10556160;28;2076;-76
2022/10/12 18:27:23;;;;;;;;;;;13.70;99.90;;;12.76;100.00;96266.72;10550495;28;2107;-74
2022/10/12 18:32:27;;;;;;;;;;;13.60;99.90;;;12.62;100.00;96261.09;10540729;28;1969;-74
2022/10/12 18:37:33;;;;;;;;;;;13.60;99.90;;;12.45;100.00;96264.91;10521944;28;1983;-74
2022/10/12 18:42:36;;;;;;;;;;;13.50;99.90;;;12.19;100.00;96266.03;10551863;28;1975;-75
2022/10/12 18:47:49;;;;;;;;;;;13.30;99.90;;;12.01;100.00;96264.69;10561855;28;1949;-73
2022/10/12 18:52:52;;;;;;;;;;;13.10;99.90;;;11.84;100.00;96264.19;10545171;27;1956;-73
2022/10/12 18:57:54;;;;;;;;;;;12.90;99.90;;;11.56;100.00;96265.47;10545365;28;1952;-76
2022/10/12 19:02:57;;;;;;;;;;;12.80;99.90;;;11.45;100.00;96264.66;10538222;28;2006;-75
2022/10/12 19:08:00;;;;;;;;;;;12.60;99.90;;;11.27;100.00;96255.19;10557215;28;1977;-75
2022/10/12 19:13:04;;;;;;;;;;;;;;;11.15;100.00;96257.31;10556377;28;1909;-74
2022/10/12 19:18:07;;;;;;;;;;;12.30;99.90;;;10.99;100.00;96264.53;10552024;28;1953;-73
2022/10/12 19:23:10;;;;;;;;;;;;;;;10.85;100.00;96262.59;10557181;28;1905;-75
2022/10/12 19:28:15;;;;;;;;;;;;;;;10.68;100.00;96263.59;10551225;28;1968;-76
2022/10/12 19:33:19;;;;;;;;;;;;;;;10.62;100.00;96256.56;10543963;28;1949;-78
2022/10/12 19:38:22;;;;;;;;;;;;;;;10.53;100.00;96261.63;10561646;28;2040;-77
2022/10/12 19:43:26;;;;;;;;;;;;;;;10.47;100.00;96253.81;10567551;28;1988;-77
2022/10/12 19:48:29;;;;;;;;;;;;;;;10.28;100.00;96256.94;10564356;28;2093;-76
2022/10/12 19:53:32;;;;;;;;;;;;;;;10.22;100.00;96260.63;10560824;28;2099;-76
2022/10/12 19:58:36;;;;;;;;;;;;;;;10.13;100.00;96272.94;10551183;28;2087;-76
2022/10/12 20:03:39;;;;;;;;;;;;;;;10.02;100.00;96273.91;10549761;28;2264;-77
2022/10/12 20:08:52;;;;;;;;;;;;;;;10.05;100.00;96268.03;10559405;28;1845;-76
2022/10/12 20:13:55;;;;;;;;;;;;;;;9.88;100.00;96268.19;10567706;28;1964;-77
2022/10/12 20:18:59;;;;;;;;;;;;;;;9.85;100.00;96274.06;10564520;28;2047;-76
2022/10/12 20:24:02;;;;;;;;;;;;;;;9.82;100.00;96273.78;10565366;28;1987;-77
2022/10/12 20:29:04;;;;;;;;;;;10.80;99.90;;;9.71;100.00;96281.72;10570836;28;2005;-73
2022/10/12 20:34:08;;;;;;;;;;;;;;;9.66;100.00;96273.63;10565730;28;2115;-74
2022/10/12 20:39:12;;;;;;;;;;;;;;;9.66;100.00;96275.50;10567114;28;1964;-74
2022/10/12 20:44:15;;;;;;;;;;;;;;;9.57;100.00;96277.84;10550616;28;1979;-76
2022/10/12 20:49:18;;;;;;;;;;;;;;;9.51;100.00;96283.44;10566906;28;2002;-76
2022/10/12 20:54:22;;;;;;;;;;;;;;;9.57;100.00;96293.16;10551181;28;2131;-75
2022/10/12 20:59:25;;;;;;;;;;;;;;;9.49;100.00;96289.06;10567020;28;2018;-76
2022/10/12 21:04:28;;;;;;;;;;;;;;;9.47;100.00;96288.47;10573004;28;1994;-75
2022/10/12 21:09:36;;;;;;;;;;;;;;;9.42;100.00;96280.41;10567488;28;2161;-76
2022/10/12 21:14:40;;;;;;;;;;;;;;;9.44;100.00;96276.38;10565421;28;1979;-74
2022/10/12 21:19:43;;;;;;;;;;;;;;;9.41;100.00;96265.34;10568614;28;1988;-75
2022/10/12 21:24:47;;;;;;;;;;;;;;;9.40;100.00;96274.47;10572045;28;2006;-75
2022/10/12 21:29:51;;;;;;;;;;;;;;;9.34;100.00;96268.22;10560181;28;1978;-75
2022/10/12 21:34:55;;;;;;;;;;;;;;;9.39;100.00;96267.47;10551685;28;2127;-77
2022/10/12 21:39:58;;;;;;;;;;;;;;;9.38;100.00;96265.88;10559768;28;2148;-75
2022/10/12 21:45:01;;;;;;;;;;;;;;;9.37;100.00;96269.63;10552714;28;1988;-74
2022/10/12 21:50:08;;;;;;;;;;;;;;;9.30;100.00;96271.69;10559554;28;2065;-76
2022/10/12 21:55:11;;;;;;;;;;;;;;;9.26;100.00;96270.56;10565674;28;2046;-76
2022/10/12 22:00:14;;;;;;;;;;;;;;;9.25;100.00;96275.13;10557213;28;2107;-76
2022/10/12 22:05:18;;;;;;;;;;;;;;;9.14;100.00;96268.03;10573403;28;2170;-77
2022/10/12 22:10:22;;;;;;;;;;;;;;;9.21;100.00;96264.06;10559193;28;2076;-79
2022/10/12 22:15:25;;;;;;;;;;;;;;;9.09;100.00;96266.09;10554852;28;2088;-76
2022/10/12 22:20:28;;;;;;;;;;;;;;;9.00;100.00;96262.25;10552414;28;1989;-77
2022/10/12 22:25:32;;;;;;;;;;;;;;;9.02;100.00;96265.47;10544790;28;2037;-77
2022/10/12 22:30:35;;;;;;;;;;;;;;;9.00;100.00;96256.09;10532321;28;2058;-76
2022/10/12 22:35:39;;;;;;;;;;;;;;;8.96;100.00;96260.31;10548945;28;1900;-75
2022/10/12 22:40:42;;;;;;;;;;;;;;;8.90;100.00;96256.75;10546113;28;2008;-75
2022/10/12 22:45:45;;;;;;;;;;;;;;;8.87;100.00;96259.97;10553916;28;2085;-76
2022/10/12 22:50:49;;;;;;;;;;;;;;;8.77;100.00;96266.00;10550451;28;2096;-75
2022/10/12 22:55:53;;;;;;;;;;;;;;;8.74;100.00;96263.03;10541600;28;2000;-74
2022/10/12 23:00:56;;;;;;;;;;;;;;;8.76;100.00;96255.53;10557500;28;1987;-76
2022/10/12 23:06:07;;;;;;;;;;;;;;;8.79;100.00;96255.03;10560080;28;2163;-74
2022/10/12 23:11:10;;;;;;;;;;;;;;;8.70;100.00;96253.84;10549391;28;2108;-74
2022/10/12 23:16:13;;;;;;;;;;;;;;;8.65;100.00;96250.06;10549958;28;1982;-74
2022/10/12 23:21:17;;;;;;;;;;;;;;;8.63;100.00;96257.53;10548385;28;2066;-76
2022/10/12 23:26:20;;;;;;;;;;;;;;;8.51;100.00;96254.16;10558132;28;2080;-77
2022/10/12 23:31:24;;;;;;;;;;;;;;;8.49;100.00;96253.59;10558506;28;1988;-77
2022/10/12 23:36:27;;;;;;;;;;;;;;;8.55;100.00;96249.94;10544207;28;2045;-76
2022/10/12 23:41:30;;;;;;;;;;;;;;;8.77;100.00;96241.06;10560723;28;2060;-76
2022/10/12 23:46:34;;;;;;;;;;;;;;;8.81;100.00;96231.47;10553771;28;2028;-76
2022/10/12 23:51:38;;;;;;;;;;;;;;;8.81;100.00;96231.47;10560862;28;2036;-75
2022/10/12 23:56:41;;;;;;;;;;;;;;;8.86;100.00;96226.16;10556101;28;1977;-76
